createdAt,value
2023-04-17T00:01:00.684Z,101872.59
2023-04-17T00:03:27.189Z,101874.16
2023-04-17T00:05:54.030Z,101876.25
2023-04-17T00:08:20.522Z,101879.88
2023-04-17T00:10:51.207Z,101870.78
2023-04-17T00:13:26.838Z,101874.41
2023-04-17T00:15:53.239Z,101878.78
2023-04-17T00:18:19.727Z,101875.88
2023-04-17T00:20:46.159Z,101879.50
2023-04-17T00:23:12.567Z,101872.88
2023-04-17T00:25:38.983Z,101876.00
2023-04-17T00:28:05.628Z,101868.47
2023-04-17T00:30:32.027Z,101878.19
2023-04-17T00:32:58.486Z,101871.63
2023-04-17T00:35:24.965Z,101876.16
2023-04-17T00:37:51.495Z,101871.91
2023-04-17T00:40:18.107Z,101870.19
2023-04-17T00:42:52.916Z,101872.00
2023-04-17T00:45:20.598Z,101878.56
2023-04-17T00:47:48.778Z,101877.09
2023-04-17T00:50:15.398Z,101876.97
2023-04-17T00:52:41.803Z,101885.47
2023-04-17T00:55:08.503Z,101880.75
2023-04-17T00:57:34.909Z,101877.34
2023-04-17T01:00:01.488Z,101881.59
2023-04-17T01:02:28.267Z,101884.97
2023-04-17T01:04:54.940Z,101895.28
2023-04-17T01:07:21.797Z,101881.47
2023-04-17T01:09:48.452Z,101890.06
2023-04-17T01:12:22.576Z,101884.50
2023-04-17T01:14:55.992Z,101879.47
2023-04-17T01:17:23.523Z,101882.25
2023-04-17T01:19:49.974Z,101874.69
2023-04-17T01:22:16.617Z,101876.47
2023-04-17T01:24:43.563Z,101877.72
2023-04-17T01:27:10.028Z,101886.78
2023-04-17T01:29:36.714Z,101881.19
2023-04-17T01:32:03.194Z,101877.31
2023-04-17T01:34:29.624Z,101878.41
2023-04-17T01:36:56.032Z,101879.38
2023-04-17T01:39:22.482Z,101879.75
2023-04-17T01:41:48.955Z,101878.16
2023-04-17T01:44:15.391Z,101885.19
2023-04-17T01:46:41.866Z,101875.34
2023-04-17T01:49:08.353Z,101882.25
2023-04-17T01:51:34.772Z,101876.47
2023-04-17T01:54:01.196Z,101884.44
2023-04-17T01:56:27.881Z,101886.25
2023-04-17T01:58:54.327Z,101887.22
2023-04-17T02:01:20.932Z,101888.44
2023-04-17T02:03:47.657Z,101890.13
2023-04-17T02:06:15.100Z,101893.53
2023-04-17T02:08:43.957Z,101888.66
2023-04-17T02:11:10.490Z,101887.81
2023-04-17T02:13:36.905Z,101890.63
2023-04-17T02:16:03.357Z,101895.97
2023-04-17T02:18:29.796Z,101890.13
2023-04-17T02:20:56.197Z,101893.97
2023-04-17T02:23:22.596Z,101894.94
2023-04-17T02:25:48.988Z,101899.66
2023-04-17T02:28:15.694Z,101906.34
2023-04-17T02:30:42.154Z,101901.47
2023-04-17T02:33:08.864Z,101901.69
2023-04-17T02:35:35.369Z,101904.03
2023-04-17T02:38:01.990Z,101904.09
2023-04-17T02:40:28.406Z,101896.00
2023-04-17T02:47:19.246Z,101903.81
2023-04-17T02:49:45.873Z,101907.34
2023-04-17T02:52:12.287Z,101904.09
2023-04-17T02:54:38.704Z,101909.28
2023-04-17T02:57:06.491Z,101910.44
2023-04-17T02:59:32.915Z,101908.50
2023-04-17T03:01:59.790Z,101913.25
2023-04-17T03:04:28.024Z,101918.88
2023-04-17T03:06:54.441Z,101915.03
2023-04-17T03:09:22.374Z,101919.28
2023-04-17T03:11:49.013Z,101914.41
2023-04-17T03:14:15.667Z,101912.78
2023-04-17T03:16:42.629Z,101915.81
2023-04-17T03:19:09.414Z,101919.66
2023-04-17T03:21:36.457Z,101921.63
2023-04-17T03:24:03.710Z,101930.44
2023-04-17T03:26:30.804Z,101928.28
2023-04-17T03:29:00.528Z,101935.38
2023-04-17T03:31:27.899Z,101923.03
2023-04-17T03:33:54.403Z,101932.84
2023-04-17T03:36:25.081Z,101945.13
2023-04-17T03:41:32.424Z,101944.66
2023-04-17T03:43:58.888Z,101942.72
2023-04-17T03:46:25.518Z,101948.28
2023-04-17T03:48:52.886Z,101941.03
2023-04-17T03:51:19.345Z,101946.59
2023-04-17T03:53:47.559Z,101947.44
2023-04-17T03:56:14.368Z,101945.34
2023-04-17T03:58:43.673Z,101943.44
2023-04-17T04:01:12.593Z,101948.84
2023-04-17T04:03:49.040Z,101947.13
2023-04-17T04:06:20.202Z,101947.13
2023-04-17T04:08:47.392Z,101956.75
2023-04-17T04:11:13.950Z,101961.47
2023-04-17T04:13:40.703Z,101963.53
2023-04-17T04:16:08.072Z,101966.94
2023-04-17T04:18:37.670Z,101964.84
2023-04-17T04:21:05.752Z,101967.03
2023-04-17T04:23:37.774Z,101966.16
2023-04-17T04:26:04.239Z,101969.34
2023-04-17T04:28:39.778Z,101969.19
2023-04-17T04:31:14.834Z,101972.34
2023-04-17T04:33:41.404Z,101975.75
2023-04-17T04:36:07.885Z,101970.50
2023-04-17T04:38:35.367Z,101968.34
2023-04-17T04:41:14.824Z,101983.31
2023-04-17T04:43:41.824Z,101971.59
2023-04-17T04:46:10.537Z,101971.13
2023-04-17T04:48:42.837Z,101972.03
2023-04-17T04:51:09.544Z,101972.91
2023-04-17T04:53:37.114Z,101982.72
2023-04-17T04:56:04.144Z,101983.78
2023-04-17T04:58:31.722Z,101985.81
2023-04-17T05:01:00.829Z,101993.44
2023-04-17T05:03:37.308Z,101992.38
2023-04-17T05:06:05.863Z,101993.22
2023-04-17T05:08:40.701Z,101993.69
2023-04-17T05:11:10.599Z,101991.66
2023-04-17T05:13:37.422Z,101999.16
2023-04-17T05:16:03.882Z,101998.41
2023-04-17T05:18:30.980Z,102002.03
2023-04-17T05:20:57.903Z,102007.97
2023-04-17T05:23:26.353Z,102012.41
2023-04-17T05:25:52.788Z,102010.94
2023-04-17T05:28:19.222Z,102016.50
2023-04-17T05:30:45.985Z,102020.13
2023-04-17T05:33:18.500Z,102013.03
2023-04-17T05:35:56.011Z,102018.59
2023-04-17T05:38:23.171Z,102020.28
2023-04-17T05:40:49.632Z,102013.41
2023-04-17T05:43:16.537Z,102014.41
2023-04-17T05:45:43.002Z,102023.44
2023-04-17T05:48:09.412Z,102027.22
2023-04-17T05:50:37.373Z,102021.44
2023-04-17T05:53:04.930Z,102033.44
2023-04-17T05:55:35.820Z,102033.91
2023-04-17T05:58:20.424Z,102028.78
2023-04-17T06:00:50.792Z,102034.75
2023-04-17T06:03:19.372Z,102038.19
2023-04-17T06:05:49.320Z,102041.00
2023-04-17T06:08:16.269Z,102036.06
2023-04-17T06:10:45.549Z,102037.38
2023-04-17T06:13:11.990Z,102037.31
2023-04-17T06:15:42.897Z,102034.53
2023-04-17T06:18:09.833Z,102034.66
2023-04-17T06:20:38.672Z,102039.47
2023-04-17T06:23:06.378Z,102041.16
2023-04-17T06:25:32.797Z,102045.50
2023-04-17T06:27:59.238Z,102047.56
2023-04-17T06:30:25.712Z,102051.81
2023-04-17T06:32:54.169Z,102052.06
2023-04-17T06:35:20.867Z,102051.53
2023-04-17T06:37:52.284Z,102058.69
2023-04-17T06:40:18.902Z,102053.59
2023-04-17T06:42:45.323Z,102058.47
2023-04-17T06:45:17.580Z,102055.69
2023-04-17T06:47:46.440Z,102062.44
2023-04-17T06:50:16.907Z,102058.03
2023-04-17T06:52:43.326Z,102063.75
2023-04-17T06:55:10.243Z,102069.69
2023-04-17T06:57:36.784Z,102066.56
2023-04-17T07:00:03.998Z,102071.88
2023-04-17T07:02:30.706Z,102067.28
2023-04-17T07:04:57.444Z,102072.72
2023-04-17T07:07:24.136Z,102075.09
2023-04-17T07:09:50.558Z,102077.50
2023-04-17T07:12:16.969Z,102078.00
2023-04-17T07:14:43.382Z,102077.53
2023-04-17T07:17:10.012Z,102077.28
2023-04-17T07:19:37.564Z,102079.06
2023-04-17T07:22:05.711Z,102079.81
2023-04-17T07:24:34.942Z,102082.81
2023-04-17T07:27:02.876Z,102086.59
2023-04-17T07:29:29.410Z,102086.72
2023-04-17T07:31:55.971Z,102087.44
2023-04-17T07:34:25.081Z,102086.88
2023-04-17T07:36:54.537Z,102092.63
2023-04-17T07:39:21.011Z,102091.81
2023-04-17T07:41:47.443Z,102096.88
2023-04-17T07:44:13.828Z,102094.25
2023-04-17T07:46:41.294Z,102099.47
2023-04-17T07:49:11.437Z,102100.47
2023-04-17T07:51:41.044Z,102096.94
2023-04-17T07:54:07.596Z,102102.41
2023-04-17T07:56:34.522Z,102105.19
2023-04-17T07:59:01.029Z,102110.91
2023-04-17T08:01:27.714Z,102108.47
2023-04-17T08:03:55.534Z,102120.47
2023-04-17T08:06:22.162Z,102118.88
2023-04-17T08:08:48.565Z,102116.75
2023-04-17T08:11:15.093Z,102124.09
2023-04-17T08:13:41.879Z,102122.16
2023-04-17T08:16:09.872Z,102120.81
2023-04-17T08:18:37.701Z,102117.06
2023-04-17T08:21:04.445Z,102127.41
2023-04-17T08:23:31.339Z,102132.97
2023-04-17T08:25:58.282Z,102131.16
2023-04-17T08:28:25.105Z,102130.31
2023-04-17T08:30:52.014Z,102132.53
2023-04-17T08:33:18.677Z,102134.59
2023-04-17T08:35:45.329Z,102131.88
2023-04-17T08:38:14.719Z,102144.00
2023-04-17T08:40:48.910Z,102137.47
2023-04-17T08:43:16.512Z,102133.56
2023-04-17T08:45:56.538Z,102142.47
2023-04-17T08:48:23.904Z,102137.09
2023-04-17T08:50:52.127Z,102142.00
2023-04-17T08:53:19.714Z,102136.59
2023-04-17T08:55:47.209Z,102136.91
2023-04-17T08:58:14.625Z,102139.59
2023-04-17T09:00:43.312Z,102137.66
2023-04-17T09:03:12.240Z,102131.44
2023-04-17T09:05:42.644Z,102133.16
2023-04-17T09:08:15.760Z,102137.03
2023-04-17T09:10:44.702Z,102130.41
2023-04-17T09:13:14.568Z,102137.41
2023-04-17T09:15:42.123Z,102140.44
2023-04-17T09:18:32.895Z,102136.97
2023-04-17T09:21:04.002Z,102132.00
2023-04-17T09:23:45.400Z,102135.06
2023-04-17T09:26:13.933Z,102129.66
2023-04-17T09:28:40.901Z,102143.50
2023-04-17T09:31:26.201Z,102127.16
2023-04-17T09:33:59.838Z,102138.13
2023-04-17T09:36:31.255Z,102133.56
2023-04-17T09:39:00.813Z,102135.22
2023-04-17T09:41:29.148Z,102127.53
2023-04-17T09:44:00.972Z,102130.53
2023-04-17T09:46:31.006Z,102130.44
2023-04-17T09:49:01.843Z,102134.91
2023-04-17T09:51:29.350Z,102137.19
2023-04-17T09:53:58.820Z,102133.00
2023-04-17T09:56:27.997Z,102131.31
2023-04-17T09:58:54.472Z,102131.66
2023-04-17T10:01:21.325Z,102133.00
2023-04-17T10:03:48.702Z,102132.47
2023-04-17T10:06:15.706Z,102136.81
2023-04-17T10:08:42.683Z,102146.97
2023-04-17T10:11:09.351Z,102141.19
2023-04-17T10:13:38.695Z,102143.47
2023-04-17T10:16:05.918Z,102142.25
2023-04-17T10:18:32.884Z,102142.34
2023-04-17T10:21:19.882Z,102138.38
2023-04-17T10:23:46.332Z,102135.91
2023-04-17T10:26:24.826Z,102136.81
2023-04-17T10:28:57.625Z,102131.78
2023-04-17T10:32:02.571Z,102135.13
2023-04-17T10:34:36.146Z,102130.34
2023-04-17T10:37:03.145Z,102128.94
2023-04-17T10:39:49.999Z,102132.41
2023-04-17T10:42:21.153Z,102131.13
2023-04-17T10:44:48.745Z,102135.72
2023-04-17T10:47:15.777Z,102127.16
2023-04-17T10:49:52.197Z,102124.44
2023-04-17T10:52:40.562Z,102121.25
2023-04-17T10:55:17.659Z,102120.28
2023-04-17T10:58:11.870Z,102120.56
2023-04-17T11:00:49.779Z,102120.19
2023-04-17T11:03:16.904Z,102116.84
2023-04-17T11:05:47.300Z,102119.38
2023-04-17T11:08:14.298Z,102114.56
2023-04-17T11:10:41.208Z,102114.31
2023-04-17T11:13:07.633Z,102119.84
2023-04-17T11:15:35.213Z,102117.28
2023-04-17T11:18:03.308Z,102126.75
2023-04-17T11:20:32.301Z,102124.78
2023-04-17T11:23:03.137Z,102121.09
2023-04-17T11:25:31.634Z,102131.41
2023-04-17T11:27:59.441Z,102122.91
2023-04-17T11:30:30.848Z,102117.44
2023-04-17T11:32:58.816Z,102120.94
2023-04-17T11:35:33.923Z,102125.44
2023-04-17T11:38:11.482Z,102123.53
2023-04-17T11:40:52.248Z,102114.03
2023-04-17T11:43:23.619Z,102121.41
2023-04-17T11:45:52.088Z,102116.34
2023-04-17T11:48:23.392Z,102125.66
2023-04-17T11:50:50.039Z,102128.72
2023-04-17T11:53:17.258Z,102131.19
2023-04-17T11:55:44.985Z,102139.88
2023-04-17T11:58:13.132Z,102133.38
2023-04-17T12:00:40.752Z,102135.03
2023-04-17T12:03:34.488Z,102136.19
2023-04-17T12:06:03.011Z,102135.63
2023-04-17T12:08:30.351Z,102138.88
2023-04-17T12:10:57.856Z,102138.16
2023-04-17T12:13:24.399Z,102140.59
2023-04-17T12:15:51.069Z,102142.03
2023-04-17T12:18:17.517Z,102149.47
2023-04-17T12:20:43.944Z,102147.84
2023-04-17T12:23:10.469Z,102142.69
2023-04-17T12:25:36.864Z,102138.44
2023-04-17T12:28:04.934Z,102132.81
2023-04-17T12:30:31.988Z,102139.88
2023-04-17T12:32:58.455Z,102141.25
2023-04-17T12:35:24.901Z,102144.97
2023-04-17T12:37:51.349Z,102147.56
2023-04-17T12:40:20.446Z,102148.75
2023-04-17T12:42:49.538Z,102153.50
2023-04-17T12:45:16.975Z,102149.47
2023-04-17T12:47:43.611Z,102145.53
2023-04-17T12:50:11.835Z,102144.50
2023-04-17T12:52:39.404Z,102145.28
2023-04-17T12:55:07.586Z,102154.84
2023-04-17T12:57:35.677Z,102152.94
2023-04-17T13:00:02.622Z,102150.91
2023-04-17T13:02:29.257Z,102155.19
2023-04-17T13:04:56.315Z,102159.13
2023-04-17T13:07:22.941Z,102162.94
2023-04-17T13:09:49.355Z,102164.06
2023-04-17T13:12:16.435Z,102170.75
2023-04-17T13:14:42.881Z,102175.34
2023-04-17T13:17:09.333Z,102186.28
2023-04-17T13:19:36.006Z,102182.03
2023-04-17T13:22:02.481Z,102185.97
2023-04-17T13:24:28.946Z,102188.91
2023-04-17T13:26:58.106Z,102192.09
2023-04-17T13:29:24.880Z,102191.41
2023-04-17T13:31:51.627Z,102197.13
2023-04-17T13:34:18.060Z,102197.13
2023-04-17T13:36:45.043Z,102198.56
2023-04-17T13:39:12.196Z,102198.47
2023-04-17T13:41:39.393Z,102201.13
2023-04-17T13:44:05.937Z,102202.72
2023-04-17T13:46:33.184Z,102200.28
2023-04-17T13:49:00.445Z,102197.75
2023-04-17T13:51:27.421Z,102196.78
2023-04-17T13:53:53.936Z,102197.50
2023-04-17T13:56:23.290Z,102197.13
2023-04-17T13:58:50.388Z,102196.28
2023-04-17T14:01:17.358Z,102194.78
2023-04-17T14:03:45.859Z,102196.47
2023-04-17T14:06:12.891Z,102197.81
2023-04-17T14:08:41.776Z,102188.72
2023-04-17T14:11:09.341Z,102197.97
2023-04-17T14:13:35.760Z,102192.34
2023-04-17T14:16:02.288Z,102199.41
2023-04-17T14:18:28.722Z,102191.97
2023-04-17T14:20:55.429Z,102185.53
2023-04-17T14:23:30.435Z,102199.78
2023-04-17T14:25:56.854Z,102200.28
2023-04-17T14:28:23.817Z,102198.22
2023-04-17T14:30:50.544Z,102198.47
2023-04-17T14:33:16.987Z,102199.41
2023-04-17T14:35:43.396Z,102198.72
2023-04-17T14:38:09.807Z,102201.53
2023-04-17T14:40:36.224Z,102198.59
2023-04-17T14:43:02.638Z,102200.41
2023-04-17T14:45:29.516Z,102207.81
2023-04-17T14:47:56.005Z,102196.06
2023-04-17T14:50:22.582Z,102202.63
2023-04-17T14:52:48.973Z,102202.88
2023-04-17T14:55:15.423Z,102204.69
2023-04-17T14:57:41.816Z,102207.34
2023-04-17T15:00:08.712Z,102214.16
2023-04-17T15:02:38.430Z,102209.06
2023-04-17T15:05:06.586Z,102209.31
2023-04-17T15:07:33.144Z,102212.47
2023-04-17T15:09:59.692Z,102211.25
2023-04-17T15:12:26.392Z,102216.00
2023-04-17T15:14:53.064Z,102208.69
2023-04-17T15:17:19.809Z,102214.41
2023-04-17T15:19:57.417Z,102212.69
2023-04-17T15:22:27.300Z,102207.22
2023-04-17T15:24:54.149Z,102211.25
2023-04-17T15:27:20.646Z,102203.09
2023-04-17T15:29:47.061Z,102208.34
2023-04-17T15:32:13.551Z,102203.94
2023-04-17T15:34:40.317Z,102209.91
2023-04-17T15:37:07.334Z,102209.66
2023-04-17T15:39:38.238Z,102211.50
2023-04-17T15:42:08.544Z,102219.13
2023-04-17T15:44:35.314Z,102207.84
2023-04-17T15:47:02.045Z,102209.19
2023-04-17T15:49:29.765Z,102209.09
2023-04-17T15:51:56.347Z,102211.25
2023-04-17T15:54:22.903Z,102205.78
2023-04-17T15:56:49.339Z,102214.66
2023-04-17T15:59:15.908Z,102216.94
2023-04-17T16:01:42.359Z,102213.66
2023-04-17T16:04:09.117Z,102212.19
2023-04-17T16:06:35.734Z,102222.75
2023-04-17T16:09:02.352Z,102224.41
2023-04-17T16:11:28.827Z,102223.41
2023-04-17T16:13:55.217Z,102229.00
2023-04-17T16:16:21.634Z,102233.38
2023-04-17T16:18:51.121Z,102230.69
2023-04-17T16:21:17.550Z,102232.63
2023-04-17T16:23:45.718Z,102234.78
2023-04-17T16:26:14.037Z,102235.09
2023-04-17T16:28:40.553Z,102221.13
2023-04-17T16:31:07.053Z,102225.66
2023-04-17T16:33:33.481Z,102226.59
2023-04-17T16:35:59.888Z,102229.16
2023-04-17T16:38:27.560Z,102232.78
2023-04-17T16:40:56.935Z,102231.53
2023-04-17T16:43:23.402Z,102236.66
2023-04-17T16:45:50.033Z,102235.28
2023-04-17T16:48:16.669Z,102233.72
2023-04-17T16:50:43.154Z,102241.84
2023-04-17T16:53:09.570Z,102236.84
2023-04-17T16:55:36.528Z,102245.28
2023-04-17T16:58:04.352Z,102242.03
2023-04-17T17:00:31.344Z,102238.53
2023-04-17T17:02:57.807Z,102245.25
2023-04-17T17:05:24.554Z,102251.72
2023-04-17T17:07:55.250Z,102257.81
2023-04-17T17:10:21.656Z,102248.78
2023-04-17T17:12:48.076Z,102245.56
2023-04-17T17:15:14.467Z,102259.34
2023-04-17T17:17:41.009Z,102253.72
2023-04-17T17:20:08.126Z,102251.47
2023-04-17T17:22:34.517Z,102255.09
2023-04-17T17:25:00.930Z,102252.03
2023-04-17T17:27:27.350Z,102257.19
2023-04-17T17:29:59.021Z,102261.56
2023-04-17T17:32:26.756Z,102259.25
2023-04-17T17:34:53.191Z,102261.53
2023-04-17T17:37:19.981Z,102260.19
2023-04-17T17:39:46.397Z,102254.25
2023-04-17T17:42:12.792Z,102259.19
2023-04-17T17:44:40.231Z,102262.78
2023-04-17T17:47:08.137Z,102266.72
2023-04-17T17:49:34.674Z,102267.72
2023-04-17T17:52:01.074Z,102268.09
2023-04-17T17:54:27.482Z,102266.03
2023-04-17T17:56:53.902Z,102273.84
2023-04-17T17:59:21.410Z,102273.38
2023-04-17T18:01:47.894Z,102273.25
2023-04-17T18:04:14.612Z,102281.41
2023-04-17T18:06:41.372Z,102281.75
2023-04-17T18:09:07.782Z,102273.31
2023-04-17T18:11:34.204Z,102278.63
2023-04-17T18:14:00.801Z,102277.72
2023-04-17T18:16:31.428Z,102276.72
2023-04-17T18:18:59.759Z,102283.00
2023-04-17T18:21:27.135Z,102273.31
2023-04-17T18:23:53.530Z,102271.41
2023-04-17T18:26:19.966Z,102280.22
2023-04-17T18:28:46.372Z,102280.06
2023-04-17T18:31:12.846Z,102285.94
2023-04-17T18:33:39.286Z,102288.19
2023-04-17T18:36:14.795Z,102290.03
2023-04-17T18:38:44.151Z,102292.69
2023-04-17T18:41:13.516Z,102283.69
2023-04-17T18:43:39.905Z,102302.38
2023-04-17T18:46:07.622Z,102287.41
2023-04-17T18:48:34.584Z,102296.03
2023-04-17T18:51:14.707Z,102301.84
2023-04-17T18:53:41.257Z,102301.38
2023-04-17T18:56:08.541Z,102294.94
2023-04-17T18:58:34.964Z,102305.16
2023-04-17T19:01:01.385Z,102292.47
2023-04-17T19:03:27.875Z,102300.03
2023-04-17T19:05:54.408Z,102287.81
2023-04-17T19:08:20.808Z,102294.25
2023-04-17T19:10:49.878Z,102295.31
2023-04-17T19:13:16.304Z,102296.19
2023-04-17T19:15:42.706Z,102295.81
2023-04-17T19:18:09.616Z,102297.06
2023-04-17T19:20:36.663Z,102296.72
2023-04-17T19:23:03.641Z,102288.00
2023-04-17T19:25:30.068Z,102295.75
2023-04-17T19:27:56.486Z,102295.97
2023-04-17T19:30:22.871Z,102292.00
2023-04-17T19:32:49.324Z,102296.34
2023-04-17T19:35:15.740Z,102288.25
2023-04-17T19:37:43.360Z,102289.19
2023-04-17T19:40:21.412Z,102300.47
2023-04-17T19:42:50.444Z,102298.91
2023-04-17T19:45:17.292Z,102300.31
2023-04-17T19:47:46.609Z,102292.19
2023-04-17T19:50:13.021Z,102285.75
2023-04-17T19:52:39.935Z,102294.97
2023-04-17T19:55:09.408Z,102287.22
2023-04-17T19:57:36.321Z,102297.28
2023-04-17T20:00:02.892Z,102292.81
2023-04-17T20:02:39.088Z,102288.09
2023-04-17T20:05:06.129Z,102289.69
2023-04-17T20:07:32.595Z,102297.78
2023-04-17T20:09:58.986Z,102298.69
2023-04-17T20:12:25.457Z,102298.88
2023-04-17T20:14:54.754Z,102289.34
2023-04-17T20:17:21.205Z,102290.38
2023-04-17T20:19:47.665Z,102288.13
2023-04-17T20:22:14.067Z,102291.56
2023-04-17T20:24:40.488Z,102286.94
2023-04-17T20:27:06.896Z,102285.81
2023-04-17T20:29:33.301Z,102281.72
2023-04-17T20:32:01.317Z,102285.16
2023-04-17T20:34:34.774Z,102281.38
2023-04-17T20:37:01.926Z,102280.69
2023-04-17T20:39:29.022Z,102278.84
2023-04-17T20:41:55.522Z,102276.06
2023-04-17T20:44:22.157Z,102274.56
2023-04-17T20:46:48.649Z,102276.91
2023-04-17T20:49:15.081Z,102280.28
2023-04-17T20:51:41.500Z,102277.81
2023-04-17T20:54:07.952Z,102274.41
2023-04-17T20:56:34.568Z,102284.66
2023-04-17T20:59:01.123Z,102280.31
2023-04-17T21:01:27.600Z,102280.66
2023-04-17T21:03:54.203Z,102275.00
2023-04-17T21:06:22.834Z,102279.53
2023-04-17T21:08:49.328Z,102277.81
2023-04-17T21:11:15.886Z,102281.53
2023-04-17T21:13:42.291Z,102288.97
2023-04-17T21:16:11.861Z,102286.75
2023-04-17T21:18:38.481Z,102284.19
2023-04-17T21:21:05.010Z,102289.81
2023-04-17T21:23:31.428Z,102292.06
2023-04-17T21:25:57.834Z,102291.13
2023-04-17T21:28:24.225Z,102288.81
2023-04-17T21:30:50.636Z,102296.56
2023-04-17T21:33:17.061Z,102294.06
2023-04-17T21:35:43.453Z,102290.19
2023-04-17T21:38:09.871Z,102292.97
2023-04-17T21:40:37.180Z,102297.97
2023-04-17T21:43:03.749Z,102293.44
2023-04-17T21:45:31.612Z,102290.94
2023-04-17T21:47:58.177Z,102294.94
2023-04-17T21:50:24.622Z,102301.63
2023-04-17T21:52:51.010Z,102292.00
2023-04-17T21:55:17.409Z,102297.97
2023-04-17T21:57:43.797Z,102298.63
2023-04-17T22:00:12.634Z,102298.81
2023-04-17T22:02:39.103Z,102299.22
2023-04-17T22:05:05.755Z,102303.94
2023-04-17T22:07:38.062Z,102302.28
2023-04-17T22:10:10.691Z,102304.50
2023-04-17T22:12:37.123Z,102300.75
2023-04-17T22:15:03.800Z,102309.50
2023-04-17T22:17:30.283Z,102301.53
2023-04-17T22:19:56.760Z,102305.06
2023-04-17T22:22:23.639Z,102306.06
2023-04-17T22:24:50.090Z,102307.75
2023-04-17T22:27:16.518Z,102302.25
2023-04-17T22:29:42.896Z,102310.41
2023-04-17T22:32:09.314Z,102308.41
2023-04-17T22:34:35.779Z,102312.97
2023-04-17T22:37:02.199Z,102306.94
2023-04-17T22:39:28.603Z,102308.22
2023-04-17T22:41:55.030Z,102301.59
2023-04-17T22:44:21.420Z,102309.72
2023-04-17T22:46:47.818Z,102312.78
2023-04-17T22:49:14.520Z,102312.00
2023-04-17T22:51:41.164Z,102312.16
2023-04-17T22:54:15.458Z,102307.94
2023-04-17T22:56:48.351Z,102310.50
2023-04-17T22:59:14.735Z,102312.00
2023-04-17T23:01:41.169Z,102313.03
2023-04-17T23:04:08.081Z,102315.63
2023-04-17T23:06:34.505Z,102324.53
2023-04-17T23:09:01.365Z,102321.75
2023-04-17T23:11:27.805Z,102317.69
2023-04-17T23:13:54.198Z,102324.81
2023-04-17T23:16:20.719Z,102318.22
2023-04-17T23:18:47.185Z,102337.50
2023-04-17T23:21:13.624Z,102325.53
2023-04-17T23:23:40.130Z,102324.88
2023-04-17T23:26:06.642Z,102330.25
2023-04-17T23:28:33.090Z,102324.69
2023-04-17T23:31:06.316Z,102328.31
2023-04-17T23:33:33.358Z,102321.06
2023-04-17T23:35:59.749Z,102324.63
2023-04-17T23:38:26.145Z,102332.84
2023-04-17T23:40:52.608Z,102329.66
2023-04-17T23:43:19.031Z,102325.97
2023-04-17T23:45:45.462Z,102326.25
2023-04-17T23:48:11.865Z,102327.53
2023-04-17T23:50:38.269Z,102329.03
2023-04-17T23:53:04.780Z,102330.78
2023-04-17T23:55:31.225Z,102328.19
2023-04-17T23:57:57.642Z,102334.22
